Terminal Aerodrome Forecast
Issued by NWS Omaha/Valley, NE

Home | Current Version | Previous Version | Graphics & Text | Print | Product List | Glossary On
Versions: 1 2 3 4 5 6 7 8 9 10 11 12 13 14 15 16 17 18 19 20 21
000
FTUS43 KOAX 231120
TAFOFK
TAF
KOFK 231120Z 2312/2412 15012KT P6SM OVC025 WS020/18040KT
      TEMPO 2313/2317 5SM -DZ BR OVC009
     FM231800 17016KT P6SM OVC012 WS020/19042KT
     FM232300 16013G21KT P6SM SCT025 BKN120
     FM240200 18014G25KT P6SM VCSH SCT030 OVC070 WS020/18040KT
     FM240700 19009KT 6SM -SHRA OVC035=

USA.gov is the U.S. government's official web portal to all federal, state and local government web resources and services.